Time;durP1;ratioP1;P1;durP2;ratioP2;P2;SDS_P1;SDS_P2;PMS_P1;PMS_P2;Temp;Humidity;BMP_temperature;BMP_pressure;BME280_temperature;BME280_humidity;BME280_pressure;Samples;Min_cycle;Max_cycle;Signal;HPM_P1;HPM_P2
2022/07/06 00:01:56;;;;;;;8.00;7.20;;;;;;;15.94;87.85;100363.75;130236;1271;108959;-74
2022/07/06 00:05:01;;;;;;;9.20;7.30;;;;;;;15.93;87.90;100363.69;130119;1271;108606;-74
2022/07/06 00:08:07;;;;;;;8.10;6.70;;;;;;;15.90;87.96;100359.14;130203;1270;108823;-74
2022/07/06 00:11:13;;;;;;;9.80;6.70;;;;;;;15.91;87.99;100359.73;130156;1271;108707;-74
2022/07/06 00:14:18;;;;;;;8.40;7.40;;;;;;;15.93;88.27;100359.55;130150;1271;108747;-73
2022/07/06 00:17:24;;;;;;;9.60;7.20;;;;;;;15.91;87.98;100356.70;130184;1271;108761;-73
2022/07/06 00:20:29;;;;;;;10.00;7.20;;;;;;;15.94;87.90;100361.25;130187;1271;108287;-73
2022/07/06 00:23:35;;;;;;;9.20;6.90;;;;;;;15.99;87.88;100359.02;130199;1270;108268;-73
2022/07/06 00:26:40;;;;;;;11.40;8.00;;;;;;;15.99;87.90;100358.97;130221;1271;109023;-73
2022/07/06 00:29:46;;;;;;;8.80;7.70;;;;;;;15.97;88.02;100360.10;130191;1270;108765;-75
2022/07/06 00:32:51;;;;;;;11.80;7.30;;;;;;;15.97;87.91;100363.45;130163;1270;109053;-74
2022/07/06 00:35:56;;;;;;;9.70;7.20;;;;;;;15.95;88.13;100362.19;130176;1270;107744;-74
2022/07/06 00:39:02;;;;;;;8.10;7.30;;;;;;;15.94;88.14;100360.89;130221;1270;108730;-74
2022/07/06 00:42:08;;;;;;;8.50;7.50;;;;;;;15.99;88.05;100359.71;130211;1271;108822;-73
2022/07/06 00:45:15;;;;;;;10.50;7.20;;;;;;;16.03;87.84;100353.69;130051;1270;109087;-73
2022/07/06 00:48:20;;;;;;;9.20;6.20;;;;;;;16.10;87.83;100347.64;130186;1270;108570;-73
2022/07/06 00:51:30;;;;;;;9.90;7.20;;;;;;;16.17;87.70;100340.48;130197;1271;108955;-75
2022/07/06 00:54:37;;;;;;;9.70;7.90;;;;;;;16.24;87.71;100337.96;130246;1271;108883;-75
2022/07/06 00:57:44;;;;;;;10.20;7.60;;;;;;;16.39;87.73;100331.69;130238;1271;108567;-75
2022/07/06 01:00:49;;;;;;;12.90;7.00;;;;;;;16.48;87.39;100328.64;130172;1270;108878;-75
2022/07/06 01:03:54;;;;;;;9.60;6.40;;;;;;;16.48;87.19;100322.48;130164;1271;108981;-75
2022/07/06 01:07:01;;;;;;;7.70;7.00;;;;;;;16.52;87.38;100318.25;130090;1270;206217;-73
2022/07/06 01:10:08;;;;;;;8.40;7.50;;;;;;;16.61;87.42;100312.52;130190;1271;108973;-72
2022/07/06 01:13:14;;;;;;;7.90;7.20;;;;;;;16.70;87.30;100308.15;130225;1271;108828;-74
2022/07/06 01:16:20;;;;;;;8.50;7.20;;;;;;;16.72;87.05;100304.10;130176;1271;108765;-76
2022/07/06 01:19:25;;;;;;;9.80;6.60;;;;;;;16.74;86.92;100303.30;130197;1271;108728;-74
2022/07/06 01:22:31;;;;;;;7.30;6.40;;;;;;;16.78;86.85;100308.05;130095;1271;108726;-77
2022/07/06 01:25:37;;;;;;;9.60;7.10;;;;;;;16.80;86.72;100303.27;130209;1271;107866;-78
2022/07/06 01:28:42;;;;;;;9.30;7.70;;;;;;;16.79;86.63;100297.46;129986;1270;107404;-77
2022/07/06 01:31:50;;;;;;;8.30;7.10;;;;;;;16.74;86.51;100298.45;130182;1269;108805;-76
2022/07/06 01:34:55;;;;;;;7.20;6.50;;;;;;;16.63;86.52;100299.88;130131;1270;108705;-77
2022/07/06 01:38:02;;;;;;;9.80;7.30;;;;;;;16.58;86.69;100302.39;130158;1271;108908;-76
2022/07/06 01:41:09;;;;;;;8.60;7.10;;;;;;;16.56;86.61;100296.36;130155;1269;109004;-76
2022/07/06 01:44:15;;;;;;;8.30;7.30;;;;;;;16.59;86.69;100289.76;130185;1270;108860;-76
2022/07/06 01:47:21;;;;;;;7.90;6.60;;;;;;;16.56;86.52;100294.38;130071;1270;108874;-74
2022/07/06 01:50:29;;;;;;;10.50;6.80;;;;;;;16.51;86.48;100291.09;130191;1271;108692;-75
2022/07/06 01:53:35;;;;;;;11.10;6.70;;;;;;;16.47;86.48;100291.34;130165;1271;108838;-75
2022/07/06 01:56:41;;;;;;;8.70;7.30;;;;;;;16.46;86.48;100290.98;130186;1271;108994;-75
2022/07/06 01:59:46;;;;;;;8.40;7.10;;;;;;;16.44;86.25;100290.27;130206;1271;108867;-74
2022/07/06 02:02:52;;;;;;;7.80;6.90;;;;;;;16.43;86.36;100287.07;130165;1271;108777;-75
2022/07/06 02:05:58;;;;;;;8.70;7.10;;;;;;;16.35;86.00;100289.84;130181;1270;109116;-73
2022/07/06 02:09:03;;;;;;;8.40;7.20;;;;;;;16.32;86.37;100289.98;130152;1271;108929;-75
2022/07/06 02:12:09;;;;;;;8.40;7.10;;;;;;;16.30;86.06;100293.88;130181;1270;108958;-73
2022/07/06 02:15:15;;;;;;;8.70;7.70;;;;;;;16.24;86.11;100294.42;130114;1271;108727;-71
2022/07/06 02:18:21;;;;;;;7.40;6.70;;;;;;;16.21;86.14;100291.71;130127;1271;107595;-72
2022/07/06 02:21:26;;;;;;;10.80;6.50;;;;;;;16.22;86.22;100287.63;130093;1271;109002;-72
2022/07/06 02:24:32;;;;;;;8.20;6.90;;;;;;;16.23;85.95;100286.05;130119;1270;108728;-72
2022/07/06 02:27:37;;;;;;;8.40;7.20;;;;;;;16.18;85.81;100293.91;130174;1271;108733;-71
2022/07/06 02:30:44;;;;;;;9.90;7.30;;;;;;;16.10;85.93;100298.98;130225;1269;108832;-76
2022/07/06 02:33:50;;;;;;;8.40;6.70;;;;;;;16.04;86.17;100306.02;130168;1271;108669;-72
2022/07/06 02:36:55;;;;;;;8.00;6.40;;;;;;;16.07;86.28;100300.27;130135;1271;108739;-70
2022/07/06 02:40:01;;;;;;;7.50;6.80;;;;;;;16.12;86.10;100297.55;130051;1271;108864;-72
2022/07/06 02:43:08;;;;;;;12.70;7.40;;;;;;;16.13;85.94;100293.63;130215;1270;108811;-71
2022/07/06 02:46:15;;;;;;;9.50;7.20;;;;;;;16.14;85.81;100285.11;130063;1271;108873;-70
2022/07/06 02:49:21;;;;;;;8.40;6.60;;;;;;;16.10;85.77;100283.17;130148;1271;107623;-76
2022/07/06 02:52:26;;;;;;;8.70;6.60;;;;;;;16.06;86.00;100288.67;130148;1271;108955;-74
2022/07/06 02:55:35;;;;;;;8.10;7.30;;;;;;;15.97;85.93;100293.61;130153;1271;109018;-72
2022/07/06 02:58:41;;;;;;;8.30;6.80;;;;;;;15.97;86.40;100289.76;130164;1271;108754;-69
2022/07/06 03:01:47;;;;;;;8.40;7.50;;;;;;;15.97;85.96;100293.06;130263;1271;108949;-71
2022/07/06 03:04:53;;;;;;;11.60;7.20;;;;;;;15.95;86.39;100294.45;130169;1269;107624;-72
2022/07/06 03:07:59;;;;;;;11.70;7.40;;;;;;;15.95;86.26;100292.39;130279;1271;108978;-72
2022/07/06 03:11:05;;;;;;;7.40;6.30;;;;;;;15.96;86.25;100299.27;130248;1269;108760;-71
2022/07/06 03:14:11;;;;;;;8.00;7.00;;;;;;;16.03;86.39;100297.46;130172;1271;108717;-71
2022/07/06 03:17:18;;;;;;;11.10;9.10;;;;;;;16.09;86.53;100287.80;130138;1269;107590;-72
2022/07/06 03:20:24;;;;;;;11.50;8.20;;;;;;;16.09;86.30;100281.63;130149;1271;108855;-72
2022/07/06 03:23:32;;;;;;;12.00;7.70;;;;;;;16.03;86.78;100274.86;130171;1270;108730;-72
2022/07/06 03:26:37;;;;;;;11.40;7.50;;;;;;;15.99;86.76;100273.76;130178;1270;108714;-72
2022/07/06 03:29:43;;;;;;;15.30;8.00;;;;;;;16.07;86.82;100270.29;130184;1271;108524;-72
2022/07/06 03:32:49;;;;;;;9.90;7.80;;;;;;;16.14;86.71;100270.20;130136;1271;108671;-71
2022/07/06 03:35:55;;;;;;;12.30;8.60;;;;;;;16.18;86.78;100271.25;129991;1271;108984;-71
2022/07/06 03:39:00;;;;;;;13.90;7.90;;;;;;;16.19;86.64;100271.72;130048;1271;108990;-71
2022/07/06 03:42:07;;;;;;;12.60;8.10;;;;;;;16.17;86.58;100277.13;130014;1271;108733;-73
2022/07/06 03:45:14;;;;;;;14.40;9.70;;;;;;;16.10;86.61;100281.17;130146;1271;108774;-72
2022/07/06 03:48:19;;;;;;;14.10;9.20;;;;;;;16.08;86.71;100283.90;130170;1271;108896;-72
2022/07/06 03:51:26;;;;;;;12.30;8.80;;;;;;;16.08;86.85;100282.52;130103;1271;108879;-72
2022/07/06 03:54:32;;;;;;;12.30;8.10;;;;;;;16.06;86.64;100281.00;130165;1271;108751;-73
2022/07/06 03:57:39;;;;;;;13.90;8.80;;;;;;;16.06;86.76;100279.11;130034;1271;108838;-72
2022/07/06 04:00:45;;;;;;;10.60;9.40;;;;;;;16.11;86.77;100278.42;130226;1271;108722;-72
2022/07/06 04:03:53;;;;;;;15.80;11.20;;;;;;;16.11;86.92;100273.86;130182;1271;108726;-72
2022/07/06 04:06:58;;;;;;;11.70;9.30;;;;;;;16.06;86.89;100270.58;130135;1270;108948;-72
2022/07/06 04:10:05;;;;;;;10.70;8.00;;;;;;;16.04;87.01;100272.12;129965;1270;108993;-73
2022/07/06 04:13:10;;;;;;;16.60;9.60;;;;;;;16.16;87.30;100268.12;130194;1271;107726;-72
2022/07/06 04:16:16;;;;;;;11.90;9.40;;;;;;;16.22;86.80;100270.80;130220;1271;108710;-72
2022/07/06 04:19:21;;;;;;;14.90;10.20;;;;;;;16.20;87.05;100268.42;130211;1269;109120;-72
2022/07/06 04:22:28;;;;;;;16.30;9.30;;;;;;;16.25;87.20;100269.55;130256;1271;108968;-72
2022/07/06 04:25:34;;;;;;;11.80;8.70;;;;;;;16.32;87.37;100270.08;130197;1271;108826;-72
2022/07/06 04:28:41;;;;;;;14.80;9.40;;;;;;;16.46;87.46;100265.63;130083;1271;108909;-73
2022/07/06 04:31:46;;;;;;;12.80;9.40;;;;;;;16.67;87.20;100258.17;130188;1271;108873;-73
2022/07/06 04:34:52;;;;;;;11.50;8.90;;;;;;;16.89;87.07;100256.36;130044;1270;108734;-73
2022/07/06 04:37:58;;;;;;;12.50;8.60;;;;;;;17.12;86.87;100259.16;130034;1270;108699;-72
2022/07/06 04:41:04;;;;;;;10.60;7.30;;;;;;;17.25;86.64;100267.60;130120;1271;108843;-72
2022/07/06 04:44:10;;;;;;;11.90;7.80;;;;;;;17.34;86.77;100267.17;130188;1271;108974;-72
2022/07/06 04:47:17;;;;;;;13.50;9.00;;;;;;;17.51;86.35;100266.45;130212;1271;107765;-74
2022/07/06 04:50:23;;;;;;;11.20;8.20;;;;;;;17.55;86.10;100272.50;129991;1270;108834;-73
2022/07/06 04:53:28;;;;;;;9.40;7.00;;;;;;;17.51;85.80;100273.42;130108;1271;109002;-72
2022/07/06 04:56:34;;;;;;;6.70;5.70;;;;;;;17.52;86.18;100277.58;130216;1271;108823;-73
2022/07/06 04:59:40;;;;;;;7.10;5.20;;;;;;;17.54;85.51;100278.50;130186;1271;108838;-75
2022/07/06 05:02:46;;;;;;;8.10;5.10;;;;;;;17.63;85.89;100276.02;130222;1271;108652;-72
2022/07/06 05:05:52;;;;;;;7.80;4.90;;;;;;;17.70;84.96;100275.73;130156;1271;108765;-72
2022/07/06 05:08:59;;;;;;;5.40;4.20;;;;;;;17.72;85.10;100273.48;130077;1271;108740;-72
2022/07/06 05:12:05;;;;;;;6.00;3.80;;;;;;;17.80;84.74;100276.20;130052;1271;108701;-74
2022/07/06 05:15:13;;;;;;;4.50;4.00;;;;;;;17.86;84.39;100279.95;130028;1271;108847;-72
2022/07/06 05:18:18;;;;;;;4.30;3.70;;;;;;;17.90;84.23;100280.43;130187;1271;108921;-74
2022/07/06 05:21:24;;;;;;;6.20;3.90;;;;;;;17.94;84.34;100288.71;130172;1271;108791;-73
2022/07/06 05:24:29;;;;;;;5.40;4.00;;;;;;;17.90;83.47;100296.58;130016;1271;108714;-72
2022/07/06 05:27:35;;;;;;;6.10;3.50;;;;;;;17.84;83.85;100296.91;130140;1268;108830;-73
2022/07/06 05:30:41;;;;;;;7.90;3.10;;;;;;;17.79;83.88;100299.03;130223;1270;108917;-72
2022/07/06 05:33:47;;;;;;;4.50;2.70;;;;;;;17.81;84.20;100297.27;130109;1269;108652;-73
2022/07/06 05:36:53;;;;;;;4.20;3.00;;;;;;;18.00;83.49;100298.25;130222;1271;109022;-72
2022/07/06 05:39:58;;;;;;;5.10;3.20;;;;;;;18.11;83.34;100291.61;130112;1271;107493;-73
2022/07/06 05:43:04;;;;;;;5.60;3.10;;;;;;;18.21;82.65;100298.55;130149;1270;108599;-73
2022/07/06 05:46:10;;;;;;;3.40;2.70;;;;;;;18.27;82.59;100306.09;130163;1270;108895;-75
2022/07/06 05:52:39;;;;;;;4.90;2.80;;;;;;;18.25;82.59;100310.31;130060;1271;108795;-74
2022/07/06 05:55:46;;;;;;;4.20;3.20;;;;;;;18.34;81.59;100319.66;130171;1271;108878;-73
2022/07/06 05:58:52;;;;;;;4.40;2.80;;;;;;;18.29;81.38;100323.35;130090;1270;108636;-72
2022/07/06 06:01:58;;;;;;;4.40;2.30;;;;;;;18.45;81.69;100324.02;130184;1270;108655;-73
2022/07/06 06:05:04;;;;;;;5.00;2.90;;;;;;;18.55;81.68;100323.68;130090;1271;108753;-72
2022/07/06 06:08:10;;;;;;;4.30;2.60;;;;;;;18.77;81.90;100327.07;130222;1271;108979;-72
2022/07/06 06:11:15;;;;;;;4.70;2.70;;;;;;;19.11;81.37;100325.33;130213;1270;108605;-72
2022/07/06 06:14:21;;;;;;;4.20;2.80;;;;;;;19.42;79.63;100323.15;130252;1270;108733;-73
2022/07/06 06:17:26;;;;;;;5.20;2.70;;;;;;;19.38;78.66;100323.83;130155;1271;108705;-72
2022/07/06 06:20:32;;;;;;;4.30;2.80;;;;;;;19.39;79.55;100320.38;130216;1268;109588;-72
2022/07/06 06:23:37;;;;;;;3.80;2.50;;;;;;;19.46;79.58;100322.41;130122;1271;108884;-73
2022/07/06 06:26:43;;;;;;;5.30;3.10;;;;;;;19.39;78.90;100325.83;130240;1268;108317;-73
2022/07/06 06:29:48;;;;;;;6.30;2.90;;;;;;;19.17;77.70;100327.96;130288;1268;108602;-73
2022/07/06 06:33:03;;;;;;;5.80;3.60;;;;;;;19.18;79.19;100329.38;130256;1267;109396;-74
2022/07/06 06:36:10;;;;;;;6.90;3.10;;;;;;;19.20;79.20;100331.20;130214;1267;107416;-72
2022/07/06 06:39:15;;;;;;;5.20;3.10;;;;;;;19.30;79.02;100331.58;130282;1267;108935;-74
2022/07/06 06:42:20;;;;;;;3.70;2.50;;;;;;;19.39;79.29;100329.37;130310;1267;108964;-75
2022/07/06 06:45:27;;;;;;;3.60;2.50;;;;;;;19.50;79.36;100329.98;130152;1271;108703;-76
2022/07/06 06:48:32;;;;;;;4.60;3.00;;;;;;;19.64;78.59;100333.95;130179;1267;108910;-77
2022/07/06 06:51:39;;;;;;;5.90;3.50;;;;;;;19.62;78.35;100334.13;130252;1268;108835;-76
2022/07/06 06:54:45;;;;;;;3.70;3.40;;;;;;;19.58;77.40;100330.27;130365;1268;108742;-77
2022/07/06 06:57:50;;;;;;;5.20;3.00;;;;;;;19.51;78.12;100329.55;130238;1267;109886;-77
2022/07/06 07:00:56;;;;;;;6.50;4.00;;;;;;;19.48;77.39;100326.77;130258;1268;108829;-77
2022/07/06 07:04:01;;;;;;;4.70;3.90;;;;;;;19.38;77.46;100328.20;130217;1271;108959;-77
2022/07/06 07:07:07;;;;;;;4.30;2.80;;;;;;;19.41;78.02;100331.02;130217;1267;108695;-76
2022/07/06 07:10:12;;;;;;;3.30;3.00;;;;;;;19.50;77.42;100327.36;130240;1268;108626;-76
2022/07/06 07:13:18;;;;;;;4.50;2.90;;;;;;;19.53;77.08;100330.73;130241;1268;108939;-77
2022/07/06 07:16:24;;;;;;;3.90;2.70;;;;;;;19.53;77.45;100333.42;130142;1270;108688;-76
2022/07/06 07:19:29;;;;;;;4.20;2.50;;;;;;;19.57;76.57;100336.72;130219;1267;108658;-75
2022/07/06 07:22:35;;;;;;;2.60;2.20;;;;;;;19.62;76.08;100339.04;130159;1270;108551;-76
2022/07/06 07:25:40;;;;;;;3.80;2.20;;;;;;;19.54;75.27;100334.55;130138;1271;108941;-76
2022/07/06 07:28:46;;;;;;;3.20;2.00;;;;;;;19.50;74.78;100332.64;130230;1268;108886;-75
2022/07/06 07:31:52;;;;;;;2.80;1.70;;;;;;;19.42;73.47;100331.13;130210;1268;107691;-77
2022/07/06 07:34:57;;;;;;;2.30;1.70;;;;;;;19.33;72.56;100327.16;130252;1268;108859;-76
2022/07/06 07:38:02;;;;;;;4.10;1.70;;;;;;;19.28;73.09;100321.95;130190;1268;108847;-76
2022/07/06 07:41:11;;;;;;;4.40;1.50;;;;;;;19.28;73.23;100324.34;130191;1271;108795;-76
2022/07/06 07:44:16;;;;;;;3.50;1.40;;;;;;;19.32;73.53;100333.20;130284;1268;108879;-75
2022/07/06 07:47:22;;;;;;;2.20;1.50;;;;;;;19.47;73.79;100320.88;130268;1268;108658;-75
2022/07/06 07:50:29;;;;;;;4.90;2.50;;;;;;;19.66;72.69;100323.51;130219;1270;108753;-75
2022/07/06 07:53:34;;;;;;;3.20;1.90;;;;;;;19.76;73.00;100321.29;130201;1268;108829;-75
2022/07/06 07:56:40;;;;;;;2.40;1.80;;;;;;;20.07;72.90;100322.42;130234;1268;108077;-75
2022/07/06 07:59:46;;;;;;;2.10;1.60;;;;;;;20.34;72.86;100321.98;130220;1268;108840;-76
2022/07/06 08:02:51;;;;;;;2.70;1.70;;;;;;;20.69;72.22;100320.53;130229;1268;108814;-74
2022/07/06 08:05:57;;;;;;;2.50;1.80;;;;;;;20.85;70.35;100321.17;130278;1268;107749;-74
2022/07/06 08:09:04;;;;;;;1.90;1.50;;;;;;;20.74;70.51;100322.66;130243;1268;108238;-75
2022/07/06 08:12:11;;;;;;;2.40;1.30;;;;;;;20.77;69.84;100326.23;130242;1268;108897;-75
2022/07/06 08:15:17;;;;;;;3.50;2.00;;;;;;;20.98;70.57;100328.17;130229;1268;108836;-75
2022/07/06 08:18:22;;;;;;;2.50;1.60;;;;;;;21.26;68.46;100328.92;130243;1268;108783;-75
2022/07/06 08:21:28;;;;;;;3.00;1.20;;;;;;;21.12;64.80;100337.05;130249;1268;107824;-77
2022/07/06 08:24:33;;;;;;;1.30;1.10;;;;;;;20.68;65.37;100338.55;130325;1268;108824;-77
2022/07/06 08:27:38;;;;;;;1.60;1.20;;;;;;;20.60;66.01;100339.93;130279;1268;108662;-75
2022/07/06 08:30:44;;;;;;;1.70;1.20;;;;;;;20.63;66.60;100336.04;130296;1268;109088;-75
2022/07/06 08:33:52;;;;;;;1.60;1.30;;;;;;;20.69;65.62;100333.58;130259;1268;108994;-75
2022/07/06 08:36:58;;;;;;;3.40;1.30;;;;;;;20.64;65.51;100330.48;130222;1267;108707;-75
2022/07/06 08:40:04;;;;;;;2.10;1.10;;;;;;;20.59;64.17;100335.34;130235;1268;108985;-77
2022/07/06 08:43:10;;;;;;;1.70;1.30;;;;;;;20.38;64.03;100344.05;130247;1268;107917;-76
2022/07/06 08:46:16;;;;;;;2.20;1.10;;;;;;;20.47;66.20;100338.13;130212;1268;108997;-75
2022/07/06 08:49:23;;;;;;;2.00;1.20;;;;;;;20.62;64.34;100335.88;130266;1268;108953;-75
2022/07/06 08:52:29;;;;;;;3.00;1.10;;;;;;;20.60;65.32;100335.70;130228;1268;108984;-76
2022/07/06 08:55:35;;;;;;;1.20;0.80;;;;;;;20.58;62.23;100340.51;130295;1268;107066;-76
2022/07/06 08:58:42;;;;;;;3.30;1.00;;;;;;;20.57;62.98;100339.55;130280;1268;108477;-75
2022/07/06 09:01:48;;;;;;;1.10;0.90;;;;;;;20.59;63.87;100341.88;130286;1268;108723;-75
2022/07/06 09:04:57;;;;;;;1.80;1.00;;;;;;;20.72;63.08;100340.38;130248;1268;108779;-75
2022/07/06 09:08:05;;;;;;;1.30;1.00;;;;;;;20.81;63.43;100341.69;130217;1268;108936;-75
2022/07/06 09:11:10;;;;;;;2.70;1.00;;;;;;;20.88;61.70;100348.77;130188;1271;108035;-75
2022/07/06 09:14:16;;;;;;;2.80;1.00;;;;;;;20.93;61.56;100346.58;130244;1268;108520;-75
2022/07/06 09:17:21;;;;;;;1.80;0.80;;;;;;;20.93;59.90;100341.83;130238;1268;108870;-75
2022/07/06 09:20:27;;;;;;;2.00;0.80;;;;;;;20.92;59.00;100340.58;130215;1268;109131;-75
2022/07/06 09:23:33;;;;;;;1.60;0.80;;;;;;;21.01;60.77;100337.76;130233;1267;108861;-75
2022/07/06 09:26:40;;;;;;;2.50;1.10;;;;;;;21.17;60.01;100333.08;130270;1268;108689;-75
2022/07/06 09:29:47;;;;;;;1.90;0.80;;;;;;;21.29;57.50;100337.83;130267;1268;108555;-75
2022/07/06 09:32:54;;;;;;;1.90;0.70;;;;;;;21.37;56.38;100339.10;130260;1268;108890;-75
2022/07/06 09:36:01;;;;;;;1.50;0.70;;;;;;;21.36;57.69;100333.02;130257;1268;108876;-75
2022/07/06 09:39:18;;;;;;;1.20;0.80;;;;;;;21.41;58.04;100330.73;130247;1268;108668;-75
2022/07/06 09:42:28;;;;;;;1.30;0.80;;;;;;;21.47;54.69;100334.35;130267;1270;108587;-75
2022/07/06 09:45:36;;;;;;;0.90;0.60;;;;;;;21.37;53.16;100331.45;130257;1268;108812;-77
2022/07/06 09:48:42;;;;;;;2.00;0.70;;;;;;;21.37;54.62;100330.20;130201;1267;109219;-76
2022/07/06 09:51:49;;;;;;;1.20;0.70;;;;;;;21.42;56.31;100325.20;130210;1268;108936;-76
2022/07/06 09:54:54;;;;;;;1.50;0.60;;;;;;;21.47;55.55;100320.78;130218;1267;108894;-75
2022/07/06 09:57:59;;;;;;;1.70;0.70;;;;;;;21.64;56.06;100325.92;130246;1267;109041;-75
2022/07/06 10:01:05;;;;;;;1.30;0.60;;;;;;;21.79;54.95;100332.13;130261;1267;108862;-75
2022/07/06 10:04:13;;;;;;;1.10;0.70;;;;;;;21.78;52.50;100338.66;130238;1267;108559;-76
2022/07/06 10:07:19;;;;;;;1.40;0.60;;;;;;;21.85;51.54;100338.89;130270;1268;108612;-76
2022/07/06 10:10:28;;;;;;;1.50;0.70;;;;;;;21.99;53.22;100340.52;130259;1271;107665;-76
2022/07/06 10:13:35;;;;;;;0.80;0.60;;;;;;;22.14;52.31;100340.28;130269;1267;108875;-75
2022/07/06 10:16:40;;;;;;;2.30;0.60;;;;;;;22.19;51.42;100342.79;130271;1267;107529;-75
2022/07/06 10:19:47;;;;;;;1.60;0.60;;;;;;;22.34;51.48;100342.90;130235;1267;108977;-76
2022/07/06 10:22:53;;;;;;;0.80;0.70;;;;;;;22.33;49.71;100344.73;130223;1267;108791;-76
2022/07/06 10:25:59;;;;;;;1.80;0.60;;;;;;;22.37;49.16;100336.23;130256;1267;106767;-76
2022/07/06 10:29:06;;;;;;;2.20;0.80;;;;;;;22.37;48.75;100348.08;130299;1267;108842;-77
2022/07/06 10:32:12;;;;;;;0.90;0.60;;;;;;;22.19;49.34;100341.62;130336;1268;107838;-76
2022/07/06 10:35:19;;;;;;;1.80;0.80;;;;;;;22.04;49.60;100343.64;130256;1267;108834;-78
2022/07/06 10:38:33;;;;;;;1.60;0.90;;;;;;;22.13;49.19;100341.40;130241;1267;108707;-78
2022/07/06 10:41:38;;;;;;;1.70;0.60;;;;;;;22.32;50.26;100346.92;130243;1267;107129;-79
2022/07/06 10:44:47;;;;;;;0.90;0.60;;;;;;;22.39;48.97;100349.77;130175;1269;108709;-79
2022/07/06 10:48:18;;;;;;;1.10;0.70;;;;;;;22.43;48.92;100348.00;130271;1267;108738;-79
2022/07/06 10:51:28;;;;;;;0.90;0.80;;;;;;;22.45;48.07;100344.13;130224;1267;107045;-78
2022/07/06 10:54:41;;;;;;;2.80;0.90;;;;;;;22.34;48.30;100344.09;130277;1267;107733;-78
2022/07/06 10:57:55;;;;;;;1.80;0.90;;;;;;;22.31;49.32;100342.66;130245;1270;108772;-78
2022/07/06 11:01:00;;;;;;;2.80;1.00;;;;;;;22.38;49.79;100346.39;130259;1267;108658;-77
2022/07/06 11:04:10;;;;;;;2.70;1.10;;;;;;;22.43;48.19;100339.38;130260;1267;108693;-78
2022/07/06 11:07:16;;;;;;;1.80;1.30;;;;;;;22.52;49.54;100328.77;130319;1267;108669;-76
2022/07/06 11:10:25;;;;;;;1.30;1.10;;;;;;;22.69;47.36;100327.05;130235;1267;108669;-75
2022/07/06 11:13:30;;;;;;;1.50;1.20;;;;;;;22.74;46.90;100331.93;130312;1268;108737;-77
2022/07/06 11:16:39;;;;;;;3.20;1.20;;;;;;;22.88;48.52;100327.54;130220;1270;108895;-79
2022/07/06 11:19:55;;;;;;;1.30;1.20;;;;;;;22.85;47.09;100332.30;130264;1267;108852;-78
2022/07/06 11:23:01;;;;;;;1.50;0.90;;;;;;;22.67;45.99;100331.77;130246;1267;108824;-77
2022/07/06 11:26:06;;;;;;;2.40;1.00;;;;;;;22.50;45.03;100336.15;130218;1265;108828;-78
2022/07/06 11:29:13;;;;;;;3.40;1.20;;;;;;;22.70;46.91;100334.62;130226;1267;108469;-78
2022/07/06 11:32:26;;;;;;;1.80;0.90;;;;;;;23.01;45.98;100330.48;130254;1267;108722;-78
2022/07/06 11:35:32;;;;;;;5.10;1.20;;;;;;;23.13;47.39;100328.09;130279;1268;108745;-79
2022/07/06 11:38:37;;;;;;;1.40;0.70;;;;;;;23.18;46.68;100322.28;130255;1269;108918;-78
2022/07/06 11:41:43;;;;;;;2.00;0.70;;;;;;;23.09;46.40;100322.28;130220;1268;109006;-76
2022/07/06 11:44:50;;;;;;;1.90;1.20;;;;;;;22.92;45.73;100326.93;130229;1268;108751;-77
2022/07/06 11:48:12;;;;;;;2.70;1.00;;;;;;;22.82;46.73;100321.99;130203;1268;108164;-76
2022/07/06 11:51:17;;;;;;;2.60;0.90;;;;;;;22.81;45.51;100321.99;130245;1268;108903;-77
2022/07/06 11:54:24;;;;;;;1.10;0.80;;;;;;;22.85;46.56;100320.98;130239;1268;109068;-77
2022/07/06 11:57:33;;;;;;;0.90;0.80;;;;;;;22.78;45.64;100321.91;130278;1267;109048;-76
2022/07/06 12:00:38;;;;;;;2.50;0.90;;;;;;;22.75;46.49;100323.28;130269;1267;109647;-76
2022/07/06 12:03:44;;;;;;;1.60;0.90;;;;;;;22.68;45.34;100320.60;130289;1267;108825;-77
2022/07/06 12:06:50;;;;;;;1.10;0.90;;;;;;;22.77;44.98;100313.81;130242;1268;108745;-77
2022/07/06 12:09:56;;;;;;;1.70;0.90;;;;;;;23.00;45.56;100312.25;130234;1268;108816;-77
2022/07/06 12:13:06;;;;;;;2.00;1.00;;;;;;;23.17;45.29;100311.79;130186;1270;108673;-77
2022/07/06 12:16:16;;;;;;;1.30;0.70;;;;;;;23.18;43.85;100310.85;130252;1270;108848;-75
2022/07/06 12:19:24;;;;;;;1.50;0.90;;;;;;;23.14;46.07;100308.95;130314;1268;108826;-77
2022/07/06 12:22:29;;;;;;;2.00;0.80;;;;;;;23.25;46.32;100309.67;130257;1268;106987;-78
2022/07/06 12:25:36;;;;;;;0.90;0.70;;;;;;;23.35;45.43;100310.73;130240;1268;108753;-78
2022/07/06 12:28:42;;;;;;;1.10;0.60;;;;;;;23.42;45.77;100311.36;130245;1268;108803;-78
2022/07/06 12:31:52;;;;;;;2.10;0.90;;;;;;;23.55;45.38;100316.68;130232;1270;108647;-78
2022/07/06 12:35:07;;;;;;;2.40;0.80;;;;;;;23.60;43.69;100319.13;130214;1267;108502;-78
2022/07/06 12:38:12;;;;;;;0.90;0.50;;;;;;;23.38;42.98;100321.52;130248;1268;108869;-78
2022/07/06 12:41:34;;;;;;;2.40;0.80;;;;;;;23.26;45.16;100319.00;130172;1268;108662;-77
2022/07/06 12:44:46;;;;;;;0.90;0.60;;;;;;;23.27;44.06;100326.11;130212;1268;108706;-77
2022/07/06 12:48:01;;;;;;;2.00;0.60;;;;;;;23.04;42.71;100330.19;130263;1268;108879;-77
2022/07/06 12:51:07;;;;;;;1.00;0.60;;;;;;;22.97;44.83;100329.66;130282;1267;108666;-77
2022/07/06 12:54:16;;;;;;;1.30;0.60;;;;;;;23.05;44.84;100336.05;130229;1268;108732;-77
2022/07/06 12:57:25;;;;;;;1.50;0.60;;;;;;;23.07;45.12;100338.29;130306;1268;108797;-77
2022/07/06 13:00:44;;;;;;;2.00;0.90;;;;;;;23.11;45.28;100337.75;130268;1268;108707;-77
2022/07/06 13:03:54;;;;;;;1.40;0.70;;;;;;;22.96;44.88;100345.23;130217;1268;108901;-77
2022/07/06 13:06:59;;;;;;;2.30;1.10;;;;;;;22.69;44.33;100348.19;129994;1270;345545;-77
2022/07/06 13:10:08;;;;;;;2.60;0.90;;;;;;;22.34;44.65;100363.63;130279;1268;107330;-77
2022/07/06 13:13:14;;;;;;;7.80;1.70;;;;;;;21.85;46.29;100385.98;130256;1268;108757;-77
2022/07/06 13:16:19;;;;;;;4.10;1.40;;;;;;;21.07;49.36;100403.07;130254;1269;108733;-75
2022/07/06 13:19:24;;;;;;;8.10;1.90;;;;;;;20.43;50.25;100405.50;130223;1268;108725;-75
2022/07/06 13:22:30;;;;;;;5.90;2.10;;;;;;;19.87;53.44;100421.34;130224;1267;108747;-75
2022/07/06 13:25:35;;;;;;;4.40;2.30;;;;;;;19.48;53.92;100416.91;130239;1268;108654;-75
2022/07/06 13:28:40;;;;;;;7.90;3.50;;;;;;;19.16;55.65;100419.13;130245;1267;109174;-75
2022/07/06 13:31:46;;;;;;;3.80;2.10;;;;;;;18.89;55.76;100422.27;130222;1270;108760;-75
2022/07/06 13:34:51;;;;;;;3.80;1.80;;;;;;;18.68;55.86;100426.84;130218;1268;108105;-75
2022/07/06 13:37:57;;;;;;;3.30;2.00;;;;;;;18.58;55.93;100429.55;130278;1268;109561;-75
2022/07/06 13:41:02;;;;;;;5.10;1.90;;;;;;;18.42;57.24;100439.18;130214;1270;109021;-76
2022/07/06 13:44:09;;;;;;;7.60;5.00;;;;;;;18.22;57.86;100430.02;130262;1268;109205;-75
2022/07/06 13:47:14;;;;;;;2.60;1.90;;;;;;;18.13;57.51;100432.13;130231;1268;108305;-75
2022/07/06 13:50:20;;;;;;;2.00;1.60;;;;;;;18.06;58.05;100436.03;130210;1267;108884;-76
2022/07/06 13:53:25;;;;;;;4.00;1.80;;;;;;;18.02;57.60;100436.38;130202;1268;108862;-75
2022/07/06 13:56:31;;;;;;;5.80;2.30;;;;;;;17.98;58.03;100436.77;130227;1269;108206;-75
2022/07/06 13:59:36;;;;;;;8.00;2.20;;;;;;;17.94;58.44;100440.01;130213;1267;107721;-75
2022/07/06 14:02:42;;;;;;;3.10;1.80;;;;;;;17.85;58.60;100442.53;130174;1267;108892;-75
2022/07/06 14:05:47;;;;;;;2.20;1.40;;;;;;;17.82;58.57;100433.58;130204;1268;108383;-75
2022/07/06 14:08:53;;;;;;;3.50;1.90;;;;;;;17.80;58.70;100435.61;130165;1270;107734;-75